Dauntless Aviation
Airports North America United States Colorado
98CO

NCMC HELIPORT

GREELEY, CO, USA

Airport Info
Suggest Updated Information for this Airport

Location

Latitude / Longitude: 40°24'53"N / 104°42'28"W
  40°24.9'N / 104°42.4667'W
  40.4150 / -104.7078
Elevation: 4882 ft. (estimated)
Variation: 12E (1985)
From city: 00 miles N of GREELEY, CO

Operations

Facility use: Private
Sectional chart: DENVER
Control tower: no
Boundary ARTCC: DENVER
FSS: DENVER [1-800-WX-BRIEF]
Segmented circle: no

Communications

Nearby radio navigation aids

VOR radial/distance VOR name Freq Var
GLL 233oT/8.9 GILL VORTAC 114.20 13E
DVV 353oT/31.5 MILE HIGH VORTAC 114.70 11E
BJC 33oT/36.1 JEFFCO VOR/DME 115.40 11E
DEN 357oT/36.2 DENVER VOR/DME 117.90 11E
 
NDB name Hdg/Dist Freq Var ID

Services

Runway Information

Helipad H1

Dimensions: 40 x 40 ft.
Surface: PORTLAND CEMENT CONCRETE,NO SPECIAL SURFACE TREATMENT
 

Additional Remarks

Instrument Procedures

No published instrument procedures available
Topographic chart at:
Satellite photo at:
Airport distance calculator
From:
Weather Reports

METAR

KGXY
4.2nm NE
KGXY 270615Z AUTO 03007KT 10SM CLR 17/12 A3013 RMK AO1
KFNL
14.3nm W
KFNL 270615Z AUTO 01008KT 10SM CLR A3014 RMK AO1
KLMO
25.8nm SW
KLMO 270614Z AUTO 00000KT 10SM CLR 18/09 A3014 RMK AO2 T01810087
KEIK
28.6nm S
KEIK 270615Z AUTO 00000KT 10SM CLR 17/07 A3014 RMK AO2 T01650066
KBDU
33.3nm SW
KBDU 270615Z AUTO 02004KT 10SM CLR 21/03 A3014 RMK AO2
KDEN
35.0nm SE
KDEN 270553Z 17011KT 10SM FEW150 SCT200 20/05 A3014 RMK AO2 SLP114 T02000050 10322 20183 50004 $

TAF

KDEN
35.0nm SE
KDEN 270532Z 2706/2812 20010KT P6SM FEW150 SCT200 FM271300 30007KT P6SM FEW200 FM271800 03011KT P6SM FEW200 FM272300 06011KT P6SM FEW080 SCT120 BKN200 TEMPO 2723/2803 BKN120 FM280400 13010KT P6SM FEW120 SCT200 FM280900 VRB05KT P6SM VCFG SCT015
KBJC
35.3nm S
KBJC 270532Z 2706/2806 25008KT P6SM FEW120 SCT200 FM270900 31007KT P6SM FEW100 SCT150 FM271700 03011KT P6SM FEW100 SCT150 FM272300 02008KT P6SM FEW080 SCT120 BKN200 TEMPO 2723/2803 BKN120 FM280400 34006KT P6SM FEW120 SCT200
Safelog

 

Dauntless Aviation

© 2007-2016 Dauntless Aviation, all rights reserved
Information provided via PilotNav comes from a variety of official and unofficial data sources. As errors are possible, do not use PilotNav for primary flight planning purposes. Verify any information that you receive via PilotNav with current and canonical charts and other official documents. The material in this database is subject to database copyrights held by Dauntless Aviation and may not be copied without the express permission of Dauntless Aviation - licenses for use of part of all of this data are available for purchase; enquire via the Dauntless Aviation helpdesk. A number of mechanisms and markers exist in the database to protect against and identify infringement / copyright. Automated queries against this website are stictly prohibited, and all activity is logged and analyzed.